DEDEA EDDL-
Flight info
| Callsign | DEDEA |
|---|---|
| Flight time | N/A |
| Altitude | |
| Route | |
| Aircraft | DR40 |
Departure
| Time | 2026-05-05 13:03 |
|---|---|
| Airport | Düsseldorf Airport (EDDL) |
Arrival
| Time | N/A |
|---|---|
| Airport | - |
| Time | Latitude | Longitude | Altitude | Speed | Heading |
|---|---|---|---|---|---|
| 2026-05-05 12:52 | 51.27446 | 6.75349 | 117 ft | 0 kts | 90° |
| 2026-05-05 12:54 | 51.27476 | 6.75358 | 118 ft | 10 kts | 274° |
| 2026-05-05 12:54 | 51.27501 | 6.75243 | 116 ft | 12 kts | 317° |
| 2026-05-05 12:55 | 51.27585 | 6.75193 | 115 ft | 16 kts | 348° |
| 2026-05-05 12:55 | 51.27685 | 6.75189 | 116 ft | 12 kts | 7° |
| 2026-05-05 12:55 | 51.27751 | 6.75226 | 116 ft | 9 kts | 53° |
| 2026-05-05 12:55 | 51.27812 | 6.75350 | 119 ft | 10 kts | 36° |
| 2026-05-05 12:56 | 51.27868 | 6.75327 | 119 ft | 8 kts | 335° |
| 2026-05-05 12:56 | 51.27902 | 6.75300 | 118 ft | 0 kts | 334° |
| 2026-05-05 13:01 | 51.27961 | 6.75267 | 116 ft | 12 kts | 359° |
| 2026-05-05 13:02 | 51.28021 | 6.75325 | 116 ft | 17 kts | 51° |
| 2026-05-05 13:02 | 51.28221 | 6.75741 | 124 ft | 72 kts | 52° |
| 2026-05-05 13:02 | 51.28560 | 6.76438 | 302 ft | 78 kts | 49° |
| 2026-05-05 13:02 | 51.28827 | 6.77212 | 511 ft | 90 kts | 85° |
| 2026-05-05 13:03 | 51.28357 | 6.78008 | 644 ft | 108 kts | 138° |
| 2026-05-05 13:03 | 51.27707 | 6.78104 | 829 ft | 106 kts | 220° |
| 2026-05-05 13:03 | 51.27071 | 6.77405 | 950 ft | 111 kts | 221° |
| 2026-05-05 13:03 | 51.26468 | 6.76590 | 1070 ft | 114 kts | 235° |
| 2026-05-05 13:04 | 51.26560 | 6.75562 | 1050 ft | 102 kts | 296° |
| 2026-05-05 13:04 | 51.26639 | 6.74406 | 1036 ft | 108 kts | 302° |
| 2026-05-05 13:04 | 51.27217 | 6.73850 | 1103 ft | 98 kts | 16° |
| 2026-05-05 13:04 | 51.27656 | 6.74512 | 684 ft | 90 kts | 49° |
| 2026-05-05 13:05 | 51.28053 | 6.75388 | 174 ft | 93 kts | 54° |
| 2026-05-05 13:05 | 51.28394 | 6.76116 | 145 ft | 65 kts | 53° |
| 2026-05-05 13:05 | 51.28649 | 6.76657 | 324 ft | 61 kts | 48° |
| 2026-05-05 13:05 | 51.28912 | 6.77247 | 547 ft | 68 kts | 50° |
| 2026-05-05 13:06 | 51.29195 | 6.77839 | 808 ft | 70 kts | 43° |
| 2026-05-05 13:06 | 51.29507 | 6.78529 | 1027 ft | 79 kts | 71° |
| 2026-05-05 13:06 | 51.29172 | 6.79297 | 1154 ft | 104 kts | 143° |
| 2026-05-05 13:06 | 51.28518 | 6.79917 | 1267 ft | 114 kts | 147° |
| 2026-05-05 13:07 | 51.27755 | 6.79805 | 1192 ft | 130 kts | 225° |
| 2026-05-05 13:07 | 51.27129 | 6.78809 | 1320 ft | 122 kts | 230° |
| 2026-05-05 13:07 | 51.26618 | 6.77823 | 1548 ft | 110 kts | 236° |
| 2026-05-05 13:07 | 51.26122 | 6.76792 | 1567 ft | 117 kts | 236° |
| 2026-05-05 13:08 | 51.25653 | 6.75774 | 1591 ft | 122 kts | 238° |
| 2026-05-05 13:08 | 51.25141 | 6.74545 | 1361 ft | 136 kts | 247° |
| 2026-05-05 13:08 | 51.25134 | 6.73213 | 1450 ft | 114 kts | 302° |
| 2026-05-05 13:08 | 51.25740 | 6.72310 | 1133 ft | 128 kts | 327° |
| 2026-05-05 13:09 | 51.26466 | 6.72168 | 1162 ft | 109 kts | 28° |
| 2026-05-05 13:09 | 51.27037 | 6.73100 | 911 ft | 123 kts | 52° |
| 2026-05-05 13:09 | 51.27478 | 6.74170 | 531 ft | 103 kts | 48° |
| 2026-05-05 13:09 | 51.27895 | 6.75056 | 204 ft | 88 kts | 50° |
| 2026-05-05 13:10 | 51.28284 | 6.75857 | 138 ft | 94 kts | 52° |
| 2026-05-05 13:10 | 51.28648 | 6.76612 | 294 ft | 74 kts | 49° |
| 2026-05-05 13:10 | 51.28941 | 6.77162 | 465 ft | 67 kts | 46° |
| 2026-05-05 13:10 | 51.29319 | 6.77496 | 700 ft | 66 kts | 349° |
| 2026-05-05 13:11 | 51.29819 | 6.77226 | 803 ft | 85 kts | 343° |
| 2026-05-05 13:11 | 51.30353 | 6.76911 | 1021 ft | 85 kts | 344° |
| 2026-05-05 13:11 | 51.30926 | 6.76597 | 1203 ft | 86 kts | 343° |
| 2026-05-05 13:11 | 51.31497 | 6.76218 | 1346 ft | 92 kts | 340° |
| 2026-05-05 13:12 | 51.32067 | 6.75739 | 1501 ft | 96 kts | 333° |
| 2026-05-05 13:12 | 51.32597 | 6.75052 | 1717 ft | 97 kts | 323° |
| 2026-05-05 13:12 | 51.33093 | 6.74377 | 1953 ft | 92 kts | 324° |
| 2026-05-05 13:12 | 51.33627 | 6.73710 | 1965 ft | 107 kts | 333° |
| 2026-05-05 13:13 | 51.34231 | 6.72896 | 1836 ft | 122 kts | 317° |
| 2026-05-05 13:13 | 51.34795 | 6.72028 | 1993 ft | 107 kts | 330° |
| 2026-05-05 13:13 | 51.35499 | 6.71462 | 1862 ft | 118 kts | 340° |
| 2026-05-05 13:13 | 51.36274 | 6.71025 | 1796 ft | 115 kts | 346° |
| 2026-05-05 13:14 | 51.37020 | 6.70808 | 1908 ft | 107 kts | 358° |
| 2026-05-05 13:14 | 51.37736 | 6.70730 | 2112 ft | 97 kts | 360° |
| 2026-05-05 13:14 | 51.38341 | 6.70851 | 2350 ft | 95 kts | 17° |
| 2026-05-05 13:14 | 51.39000 | 6.71133 | 2482 ft | 91 kts | 18° |
| 2026-05-05 13:15 | 51.39609 | 6.71570 | 2508 ft | 101 kts | 36° |
| 2026-05-05 13:15 | 51.40061 | 6.72308 | 2718 ft | 90 kts | 58° |
| 2026-05-05 13:15 | 51.40327 | 6.73314 | 2734 ft | 100 kts | 77° |
| 2026-05-05 13:15 | 51.40447 | 6.74417 | 2516 ft | 104 kts | 76° |
| 2026-05-05 13:16 | 51.40716 | 6.75799 | 1948 ft | 130 kts | 69° |
| 2026-05-05 13:16 | 51.40912 | 6.77049 | 2157 ft | 95 kts | 75° |
| 2026-05-05 13:16 | 51.41060 | 6.78023 | 2170 ft | 91 kts | 74° |
| 2026-05-05 13:16 | 51.41201 | 6.79028 | 2052 ft | 97 kts | 75° |
| 2026-05-05 13:17 | 51.41186 | 6.80101 | 2045 ft | 93 kts | 103° |
| 2026-05-05 13:17 | 51.40790 | 6.80965 | 1980 ft | 105 kts | 134° |
| 2026-05-05 13:17 | 51.40181 | 6.81596 | 1960 ft | 100 kts | 137° |
| 2026-05-05 13:17 | 51.39793 | 6.82475 | 1907 ft | 98 kts | 117° |
| 2026-05-05 13:18 | 51.39443 | 6.83405 | 1909 ft | 95 kts | 114° |
| 2026-05-05 13:18 | 51.39183 | 6.84349 | 1859 ft | 96 kts | 102° |
| 2026-05-05 13:18 | 51.39045 | 6.85398 | 1837 ft | 92 kts | 88° |
| 2026-05-05 13:18 | 51.39215 | 6.86290 | 1820 ft | 85 kts | 58° |
| 2026-05-05 13:19 | 51.39551 | 6.87119 | 1740 ft | 90 kts | 55° |
| 2026-05-05 13:19 | 51.39941 | 6.87868 | 1746 ft | 90 kts | 48° |
| 2026-05-05 13:19 | 51.40364 | 6.88593 | 1752 ft | 85 kts | 46° |
| 2026-05-05 13:19 | 51.40806 | 6.89286 | 1705 ft | 88 kts | 43° |
| 2026-05-05 13:20 | 51.41216 | 6.90003 | 1650 ft | 93 kts | 66° |
| 2026-05-05 13:20 | 51.41066 | 6.91029 | 1489 ft | 108 kts | 123° |
| 2026-05-05 13:20 | 51.40416 | 6.91624 | 1207 ft | 100 kts | 152° |
| 2026-05-05 13:20 | 51.39913 | 6.92287 | 658 ft | 96 kts | 90° |
| 2026-05-05 13:21 | 51.40109 | 6.93199 | 421 ft | 75 kts | 65° |
| 2026-05-05 13:21 | 51.40285 | 6.93842 | 423 ft | 52 kts | 68° |
| 2026-05-05 13:21 | 51.40402 | 6.94289 | 432 ft | 37 kts | 65° |
| 2026-05-05 13:21 | 51.40488 | 6.94597 | 435 ft | 24 kts | 65° |
| 2026-05-05 13:22 | 51.40551 | 6.94812 | 437 ft | 19 kts | 55° |
| 2026-05-05 13:22 | 51.40640 | 6.94808 | 441 ft | 15 kts | 291° |
| 2026-05-05 13:22 | 51.40673 | 6.94626 | 432 ft | 19 kts | 258° |
| 2026-05-05 13:22 | 51.40619 | 6.94436 | 428 ft | 19 kts | 246° |
| 2026-05-05 13:23 | 51.40581 | 6.94254 | 428 ft | 8 kts | 284° |
| 2026-05-05 13:23 | 51.40646 | 6.94150 | 414 ft | 18 kts | 309° |
| 2026-05-05 13:23 | 51.40644 | 6.94069 | 410 ft | 8 kts | 214° |
| 2026-05-05 13:23 | 51.40614 | 6.94021 | 411 ft | 6 kts | 253° |
| 2026-05-05 13:24 | 51.40605 | 6.93980 | 411 ft | 0 kts | 249° |